LFBI/PIS METAR and TAF weather

Enter ICAO airport designator
Station Type Date Time Source
LFBI METAR 2019/04/25 18:00 UTC NOAA

LFBI 251800Z AUTO 24011KT CAVOK 13/05 Q1007 NOSIG


Station Type Date Time Source
LFBI Decoded METAR 2019/04/25 18:00 UTC NOAA

Poitiers, France (LFBI) 46-35N 000-19E 120M
Apr 25, 2019 - 02:00 PM EDT / 2019.04.25 1800 UTC
Wind: from the WSW (240 degrees) at 13 MPH (11 KT):0
Visibility: greater than 7 mile(s):0
Temperature: 55 F (13 C)
Dew Point: 41 F (5 C)
Relative Humidity: 58%
Pressure (altimeter): 29.74 in. Hg (1007 hPa)
ob: LFBI 251800Z AUTO 24011KT CAVOK 13/05 Q1007 NOSIG
cycle: 18

Station Type Date Time Source
LFBI TAF 2019/04/25 18:21 UTC NOAA

TAF LFBI 251700Z 2518/2618 22010KT 9999 BKN040
TEMPO 2602/2609 -SHRA BKN012 BKN035TCU
BECMG 2608/2609 23010KT
BECMG 2611/2613 28012KT

Example: see airport list